Time;durP1;ratioP1;P1;durP2;ratioP2;P2;SDS_P1;SDS_P2;PMS_P1;PMS_P2;Temp;Humidity;BMP_temperature;BMP_pressure;BME280_temperature;BME280_humidity;BME280_pressure;Samples;Min_cycle;Max_cycle;Signal;HPM_P1;HPM_P2
2022/04/30 00:02:07;;;;;;;21.15;9.80;;;;;;;;;;4937255;29;20043;-72
2022/04/30 00:04:37;;;;;;;15.05;9.10;;;;;;;;;;4937105;29;20451;-69
2022/04/30 00:07:05;;;;;;;14.93;8.95;;;;;;;;;;4936482;29;20079;-69
2022/04/30 00:09:31;;;;;;;12.77;8.88;;;;;;;;;;4936375;29;20036;-69
2022/04/30 00:11:58;;;;;;;18.92;9.75;;;;;;;;;;4936605;28;20031;-69
2022/04/30 00:14:25;;;;;;;14.05;8.23;;;;;;;;;;4936730;29;20036;-69
2022/04/30 00:16:51;;;;;;;13.90;8.23;;;;;;;;;;4936957;29;20114;-70
2022/04/30 00:19:19;;;;;;;15.85;7.75;;;;;;;;;;4936754;29;20486;-70
2022/04/30 00:21:45;;;;;;;12.23;8.35;;;;;;;;;;4936978;29;20495;-68
2022/04/30 00:24:10;;;;;;;11.48;7.25;;;;;;;;;;4936544;29;20050;-75
2022/04/30 00:26:37;;;;;;;14.50;8.13;;;;;;;;;;4936503;29;20048;-74
2022/04/30 00:29:03;;;;;;;14.52;7.43;;;;;;;;;;4950795;28;20163;-75
2022/04/30 00:31:29;;;;;;;14.82;7.07;;;;;;;;;;4936623;29;20597;-70
2022/04/30 00:33:55;;;;;;;10.13;7.18;;;;;;;;;;4936753;29;20030;-74
2022/04/30 00:36:22;;;;;;;10.27;7.07;;;;;;;;;;4936491;29;20047;-73
2022/04/30 00:38:48;;;;;;;13.63;7.30;;;;;;;;;;4936453;29;20031;-68
2022/04/30 00:41:15;;;;;;;17.65;8.07;;;;;;;;;;4936521;29;20039;-70
2022/04/30 00:43:51;;;;;;;14.80;7.57;;;;;;;;;;4936606;29;20082;-74
2022/04/30 00:46:19;;;;;;;10.05;6.88;;;;;;;;;;4936443;29;20034;-74
2022/04/30 00:48:45;;;;;;;9.98;6.63;;;;;;;;;;4936224;29;20116;-73
2022/04/30 00:51:15;;;;;;;10.93;7.15;;;;;;;;;;4936184;29;20118;-72
2022/04/30 00:53:44;;;;;;;16.35;7.50;;;;;;;;;;4935107;29;20024;-70
2022/04/30 00:56:13;;;;;;;10.63;6.47;;;;;;;;;;4936158;29;20044;-75
2022/04/30 00:58:42;;;;;;;14.68;7.63;;;;;;;;;;4935161;29;20468;-71
2022/04/30 01:01:08;;;;;;;10.02;6.80;;;;;;;;;;4935920;29;20051;-70
2022/04/30 01:04:09;;;;;;;8.15;5.95;;;;;;;;;;4895417;29;20059;-71
2022/04/30 01:06:51;;;;;;;13.48;6.68;;;;;;;;;;4927661;29;20043;-70
2022/04/30 01:09:25;;;;;;;11.88;6.53;;;;;;;;;;4936076;29;20495;-72
2022/04/30 01:12:13;;;;;;;15.00;7.00;;;;;;;;;;4936144;29;20031;-74
2022/04/30 01:14:41;;;;;;;13.07;7.80;;;;;;;;;;4935609;29;20191;-72
2022/04/30 01:17:09;;;;;;;8.40;6.80;;;;;;;;;;4935461;29;20023;-71
2022/04/30 01:19:40;;;;;;;10.63;6.43;;;;;;;;;;4935384;29;20391;-69
2022/04/30 01:22:20;;;;;;;12.48;6.22;;;;;;;;;;4935565;29;20035;-72
2022/04/30 01:24:47;;;;;;;11.27;6.55;;;;;;;;;;4935305;29;20487;-74
2022/04/30 01:27:16;;;;;;;11.95;7.45;;;;;;;;;;4935697;29;20051;-73
2022/04/30 01:29:42;;;;;;;16.42;8.10;;;;;;;;;;4935517;29;20495;-77
2022/04/30 01:37:36;;;;;;;19.25;9.35;;;;;;;;;;4935403;29;20038;-73
2022/04/30 01:40:08;;;;;;;17.15;8.15;;;;;;;;;;4935283;29;20387;-73
2022/04/30 01:42:38;;;;;;;13.55;7.90;;;;;;;;;;4935230;29;20400;-75
2022/04/30 01:45:05;;;;;;;10.88;7.35;;;;;;;;;;4934968;29;20028;-76
2022/04/30 01:47:35;;;;;;;10.88;6.60;;;;;;;;;;4934419;29;20020;-74
2022/04/30 01:50:01;;;;;;;13.30;7.05;;;;;;;;;;4935084;29;20042;-72
2022/04/30 01:52:27;;;;;;;10.00;6.18;;;;;;;;;;4935243;29;20127;-71
2022/04/30 01:54:53;;;;;;;9.57;6.93;;;;;;;;;;4935042;29;20066;-72
2022/04/30 01:57:26;;;;;;;12.60;6.63;;;;;;;;;;4935364;29;20468;-74
2022/04/30 02:00:00;;;;;;;;;;;;;;;;;;4935389;29;20051;-74
2022/04/30 02:02:30;;;;;;;14.85;6.65;;;;;;;;;;4935259;29;19923;-69
2022/04/30 02:04:59;;;;;;;12.13;6.25;;;;;;;;;;4935097;29;20028;-68
2022/04/30 02:07:27;;;;;;;11.13;6.28;;;;;;;;;;4934818;29;20049;-68
2022/04/30 02:09:53;;;;;;;14.52;6.78;;;;;;;;;;4934714;29;20474;-68
2022/04/30 02:12:19;;;;;;;11.25;6.15;;;;;;;;;;4934901;29;20034;-70
2022/04/30 02:14:55;;;;;;;10.80;6.05;;;;;;;;;;4934559;29;20055;-70
2022/04/30 02:17:22;;;;;;;9.85;5.78;;;;;;;;;;4934849;29;20044;-70
2022/04/30 02:22:38;;;;;;;16.33;7.47;;;;;;;;;;4935124;29;20036;-69
2022/04/30 02:25:09;;;;;;;11.25;6.20;;;;;;;;;;4934695;29;20042;-73
2022/04/30 02:27:39;;;;;;;13.70;6.75;;;;;;;;;;4934718;29;20451;-74
2022/04/30 02:30:14;;;;;;;11.30;6.13;;;;;;;;;;4934565;29;20032;-70
2022/04/30 02:32:46;;;;;;;10.13;6.15;;;;;;;;;;4934649;29;20123;-75
2022/04/30 02:35:20;;;;;;;10.52;6.63;;;;;;;;;;4934067;29;20035;-74
2022/04/30 02:37:52;;;;;;;10.57;6.57;;;;;;;;;;4934482;29;20047;-73
2022/04/30 02:40:20;;;;;;;10.85;6.80;;;;;;;;;;4934326;29;20040;-73
2022/04/30 02:42:47;;;;;;;15.20;7.95;;;;;;;;;;4934413;29;20427;-73
2022/04/30 02:45:15;;;;;;;15.38;8.00;;;;;;;;;;4934202;29;20131;-75
2022/04/30 02:47:42;;;;;;;21.70;9.20;;;;;;;;;;4934297;29;20098;-71
2022/04/30 02:50:11;;;;;;;17.38;8.45;;;;;;;;;;4934124;29;20081;-73
2022/04/30 02:52:37;;;;;;;19.00;9.38;;;;;;;;;;4934426;29;20063;-74
2022/04/30 02:55:05;;;;;;;23.23;9.77;;;;;;;;;;4934433;29;20036;-71
2022/04/30 03:00:32;;;;;;;15.13;8.82;;;;;;;;;;4937675;29;20518;-70
2022/04/30 03:03:16;;;;;;;16.83;8.75;;;;;;;;;;4938180;29;20102;-72
2022/04/30 03:05:44;;;;;;;21.45;10.95;;;;;;;;;;4937917;29;20153;-70
2022/04/30 03:08:15;;;;;;;21.25;9.73;;;;;;;;;;4938421;29;20028;-71
2022/04/30 03:10:45;;;;;;;21.38;10.00;;;;;;;;;;4938339;29;20044;-73
2022/04/30 03:13:17;;;;;;;23.90;10.55;;;;;;;;;;4937902;29;20035;-75
2022/04/30 03:15:44;;;;;;;18.35;9.10;;;;;;;;;;4937731;29;20040;-75
2022/04/30 03:23:40;;;;;;;12.45;8.15;;;;;;;;;;4938096;29;20114;-75
2022/04/30 03:26:11;;;;;;;13.93;8.10;;;;;;;;;;4937760;29;20035;-72
2022/04/30 03:28:40;;;;;;;21.65;9.75;;;;;;;;;;4938194;29;20043;-76
2022/04/30 03:31:07;;;;;;;18.45;9.55;;;;;;;;;;4937718;29;20122;-70
2022/04/30 03:33:33;;;;;;;19.08;9.32;;;;;;;;;;4937632;29;20491;-74
2022/04/30 03:35:59;;;;;;;17.50;10.20;;;;;;;;;;4937722;29;20034;-74
2022/04/30 03:38:25;;;;;;;14.30;9.50;;;;;;;;;;4937863;29;20032;-70
2022/04/30 03:40:51;;;;;;;14.88;8.40;;;;;;;;;;4937457;29;20550;-74
2022/04/30 03:43:18;;;;;;;14.77;7.60;;;;;;;;;;4937511;29;20042;-71
2022/04/30 03:45:45;;;;;;;19.83;9.02;;;;;;;;;;4937542;29;20435;-73
2022/04/30 03:48:14;;;;;;;20.85;8.35;;;;;;;;;;4937279;29;20391;-71
2022/04/30 03:50:41;;;;;;;16.10;8.60;;;;;;;;;;4936931;29;20028;-72
2022/04/30 03:53:07;;;;;;;18.48;8.95;;;;;;;;;;4937341;29;20043;-71
2022/04/30 03:55:33;;;;;;;16.00;9.18;;;;;;;;;;4936819;29;20051;-74
2022/04/30 03:57:59;;;;;;;24.77;10.65;;;;;;;;;;4935899;29;20052;-69
2022/04/30 04:00:25;;;;;;;18.25;10.32;;;;;;;;;;4937203;29;20036;-69
2022/04/30 04:02:51;;;;;;;16.63;9.52;;;;;;;;;;4936101;29;20110;-69
2022/04/30 04:05:17;;;;;;;20.17;10.32;;;;;;;;;;4937172;29;20031;-69
2022/04/30 04:07:44;;;;;;;19.50;10.30;;;;;;;;;;4936945;29;20384;-70
2022/04/30 04:10:11;;;;;;;16.05;9.27;;;;;;;;;;4936342;29;20479;-71
2022/04/30 04:12:37;;;;;;;16.35;8.43;;;;;;;;;;4936486;29;20398;-73
2022/04/30 04:17:49;;;;;;;16.35;8.45;;;;;;;;;;4936659;29;20121;-74
2022/04/30 04:20:17;;;;;;;13.27;8.90;;;;;;;;;;4936570;29;20056;-72
2022/04/30 04:22:44;;;;;;;16.10;9.18;;;;;;;;;;4936773;29;20035;-74
2022/04/30 04:27:55;;;;;;;19.10;8.55;;;;;;;;;;4936848;29;20114;-73
2022/04/30 04:30:22;;;;;;;11.10;8.50;;;;;;;;;;4936584;29;20051;-72
2022/04/30 04:32:48;;;;;;;15.02;8.18;;;;;;;;;;4936860;28;20427;-73
2022/04/30 04:35:14;;;;;;;18.38;8.90;;;;;;;;;;4936247;29;20398;-72
2022/04/30 04:37:42;;;;;;;21.38;10.10;;;;;;;;;;4951124;29;20043;-74
2022/04/30 04:40:09;;;;;;;21.63;10.52;;;;;;;;;;4935794;29;20051;-73
2022/04/30 04:42:36;;;;;;;16.23;10.25;;;;;;;;;;4935432;29;20039;-72
2022/04/30 04:45:03;;;;;;;21.67;9.75;;;;;;;;;;4936348;29;20027;-74
2022/04/30 04:47:29;;;;;;;28.58;13.18;;;;;;;;;;4936050;29;20031;-72
2022/04/30 04:49:54;;;;;;;24.98;11.85;;;;;;;;;;4937270;29;20364;-76
2022/04/30 04:52:21;;;;;;;20.23;11.32;;;;;;;;;;4933260;29;20039;-74
2022/04/30 04:54:48;;;;;;;20.05;10.63;;;;;;;;;;4934243;29;20039;-78
2022/04/30 04:57:14;;;;;;;18.17;11.02;;;;;;;;;;4934605;29;20051;-75
2022/04/30 04:59:41;;;;;;;18.92;10.98;;;;;;;;;;4936805;29;20051;-77
2022/04/30 05:02:07;;;;;;;19.98;12.02;;;;;;;;;;4937243;29;20071;-77
2022/04/30 05:04:33;;;;;;;19.58;11.23;;;;;;;;;;4937014;29;20035;-75
2022/04/30 05:07:00;;;;;;;18.20;10.55;;;;;;;;;;4936823;29;20036;-77
2022/04/30 05:09:27;;;;;;;22.02;12.13;;;;;;;;;;4936471;29;20522;-78
2022/04/30 05:11:54;;;;;;;19.77;11.70;;;;;;;;;;4936610;29;20047;-77
2022/04/30 05:14:19;;;;;;;32.28;14.07;;;;;;;;;;4936672;29;20027;-77
2022/04/30 05:16:46;;;;;;;33.33;14.05;;;;;;;;;;4936643;29;20497;-77
2022/04/30 05:19:11;;;;;;;22.10;12.63;;;;;;;;;;4936706;29;20019;-75
2022/04/30 05:21:37;;;;;;;18.70;12.38;;;;;;;;;;4936354;29;20067;-77
2022/04/30 05:24:03;;;;;;;22.48;12.27;;;;;;;;;;4935800;29;20028;-78
2022/04/30 05:26:29;;;;;;;19.98;12.05;;;;;;;;;;4936361;29;20410;-77
2022/04/30 05:28:55;;;;;;;21.58;11.18;;;;;;;;;;4936562;29;20024;-77
2022/04/30 05:31:21;;;;;;;22.00;11.98;;;;;;;;;;4936587;29;20027;-78
2022/04/30 05:33:46;;;;;;;20.08;11.65;;;;;;;;;;4936476;29;20028;-78
2022/04/30 05:36:12;;;;;;;17.00;10.30;;;;;;;;;;4936456;29;20043;-77
2022/04/30 05:38:38;;;;;;;20.67;11.82;;;;;;;;;;4936338;29;20038;-78
2022/04/30 05:41:04;;;;;;;17.02;9.35;;;;;;;;;;4933466;29;20039;-76
2022/04/30 05:43:30;;;;;;;19.70;10.90;;;;;;;;;;4935236;29;20103;-74
2022/04/30 05:45:56;;;;;;;23.38;11.10;;;;;;;;;;4933978;29;20104;-80
2022/04/30 05:48:21;;;;;;;22.25;12.93;;;;;;;;;;4935166;29;20035;-77
2022/04/30 05:50:47;;;;;;;23.50;11.10;;;;;;;;;;4935250;29;20040;-75
2022/04/30 05:53:13;;;;;;;16.10;9.98;;;;;;;;;;4932997;29;20020;-75
2022/04/30 05:55:39;;;;;;;13.55;8.23;;;;;;;;;;4936526;28;20067;-78
2022/04/30 05:58:05;;;;;;;12.20;7.38;;;;;;;;;;4946102;29;20070;-73
2022/04/30 06:00:33;;;;;;;11.35;6.63;;;;;;;;;;4954041;28;20094;-77
2022/04/30 06:02:59;;;;;;;9.45;6.13;;;;;;;;;;4947019;28;20075;-79
2022/04/30 06:05:25;;;;;;;22.50;7.32;;;;;;;;;;4934521;28;20419;-75
2022/04/30 06:07:52;;;;;;;16.65;6.95;;;;;;;;;;4934139;29;20651;-76
2022/04/30 06:10:17;;;;;;;11.85;6.82;;;;;;;;;;4935145;29;20487;-77
2022/04/30 06:12:43;;;;;;;15.95;6.75;;;;;;;;;;4954082;28;20029;-78
2022/04/30 06:15:09;;;;;;;8.75;5.78;;;;;;;;;;4954161;28;20043;-78
2022/04/30 06:17:35;;;;;;;12.98;7.03;;;;;;;;;;4935280;28;20016;-75
2022/04/30 06:20:01;;;;;;;12.85;6.10;;;;;;;;;;4947812;29;20039;-76
2022/04/30 06:22:27;;;;;;;9.88;6.38;;;;;;;;;;4946363;28;20031;-77
2022/04/30 06:24:53;;;;;;;9.30;5.82;;;;;;;;;;4935650;29;20079;-76
2022/04/30 06:27:18;;;;;;;9.00;5.78;;;;;;;;;;4935554;29;20028;-77
2022/04/30 06:29:44;;;;;;;10.95;6.32;;;;;;;;;;4935407;29;20040;-78
2022/04/30 06:32:10;;;;;;;19.30;6.43;;;;;;;;;;4935434;29;20027;-76
2022/04/30 06:34:36;;;;;;;15.75;6.53;;;;;;;;;;4933633;29;20074;-79
2022/04/30 06:37:02;;;;;;;12.82;6.70;;;;;;;;;;4935464;29;20332;-79
2022/04/30 06:39:27;;;;;;;10.77;6.05;;;;;;;;;;4935171;29;20083;-79
2022/04/30 06:41:53;;;;;;;9.65;5.72;;;;;;;;;;4932035;29;20031;-74
2022/04/30 06:44:19;;;;;;;8.57;5.47;;;;;;;;;;4933745;29;20473;-73
2022/04/30 06:46:45;;;;;;;12.25;5.78;;;;;;;;;;4933259;29;20031;-77
2022/04/30 06:49:11;;;;;;;9.50;5.95;;;;;;;;;;4934133;29;20410;-75
2022/04/30 06:51:36;;;;;;;11.65;6.20;;;;;;;;;;4934372;29;20126;-77
2022/04/30 06:59:36;;;;;;;10.50;6.00;;;;;;;;;;4932870;29;20050;-72
2022/04/30 07:02:07;;;;;;;10.05;6.28;;;;;;;;;;4932960;29;20036;-74
2022/04/30 07:04:33;;;;;;;11.50;5.25;;;;;;;;;;4933765;29;20383;-74
2022/04/30 07:07:00;;;;;;;9.23;5.45;;;;;;;;;;4934153;29;20031;-71
2022/04/30 07:09:28;;;;;;;12.27;5.95;;;;;;;;;;4933590;29;20162;-71
2022/04/30 07:11:54;;;;;;;10.80;6.43;;;;;;;;;;4933281;29;20024;-73
2022/04/30 07:14:20;;;;;;;9.60;5.55;;;;;;;;;;4934057;29;20036;-74
2022/04/30 07:16:46;;;;;;;7.72;5.70;;;;;;;;;;4948435;29;20494;-75
2022/04/30 07:19:12;;;;;;;11.07;5.38;;;;;;;;;;4933287;29;20036;-73
2022/04/30 07:21:37;;;;;;;11.55;6.90;;;;;;;;;;4934091;29;20136;-72
2022/04/30 07:24:04;;;;;;;16.58;6.72;;;;;;;;;;4934373;29;20086;-72
2022/04/30 07:26:29;;;;;;;7.35;5.53;;;;;;;;;;4932812;29;20024;-71
2022/04/30 07:28:55;;;;;;;7.57;5.50;;;;;;;;;;4933199;29;20074;-74
2022/04/30 07:31:21;;;;;;;11.27;6.43;;;;;;;;;;4934006;29;20028;-72
2022/04/30 07:33:49;;;;;;;8.43;6.30;;;;;;;;;;4937185;29;20042;-74
2022/04/30 07:36:15;;;;;;;7.93;5.80;;;;;;;;;;4934600;29;20038;-71
2022/04/30 07:38:41;;;;;;;8.30;5.68;;;;;;;;;;4933853;29;20036;-71
2022/04/30 07:41:06;;;;;;;8.60;5.90;;;;;;;;;;4933298;29;20031;-69
2022/04/30 07:43:33;;;;;;;8.63;6.28;;;;;;;;;;4933475;29;20059;-75
2022/04/30 07:45:58;;;;;;;8.27;6.00;;;;;;;;;;4933637;29;20379;-76
2022/04/30 07:48:24;;;;;;;7.55;5.53;;;;;;;;;;4936044;29;20080;-74
2022/04/30 07:50:52;;;;;;;13.00;6.85;;;;;;;;;;4936845;29;20030;-75
2022/04/30 07:53:18;;;;;;;9.27;5.78;;;;;;;;;;4935893;29;20028;-76
2022/04/30 07:55:44;;;;;;;6.43;5.55;;;;;;;;;;4931686;29;20447;-76
2022/04/30 07:58:10;;;;;;;15.27;5.70;;;;;;;;;;4920781;29;20052;-71
2022/04/30 08:00:36;;;;;;;11.43;5.85;;;;;;;;;;4937525;29;20086;-74
2022/04/30 08:03:03;;;;;;;14.20;6.90;;;;;;;;;;4936820;29;20031;-74
2022/04/30 08:05:29;;;;;;;7.47;5.68;;;;;;;;;;4937034;29;20028;-73
2022/04/30 08:07:55;;;;;;;9.02;6.10;;;;;;;;;;4937199;29;20210;-75
2022/04/30 08:10:21;;;;;;;10.90;6.40;;;;;;;;;;4951232;29;20099;-74
2022/04/30 08:12:51;;;;;;;10.73;6.45;;;;;;;;;;4937040;29;20107;-76
2022/04/30 08:15:17;;;;;;;9.63;6.70;;;;;;;;;;4936232;29;20178;-74
2022/04/30 08:17:42;;;;;;;9.48;6.38;;;;;;;;;;4933539;29;20067;-76
2022/04/30 08:20:08;;;;;;;11.68;6.70;;;;;;;;;;4936143;29;20039;-74
2022/04/30 08:22:34;;;;;;;9.70;6.68;;;;;;;;;;4936114;29;20036;-72
2022/04/30 08:25:01;;;;;;;13.02;6.30;;;;;;;;;;4935846;29;20107;-76
2022/04/30 08:27:27;;;;;;;12.90;6.97;;;;;;;;;;4936551;29;20032;-75
2022/04/30 08:29:52;;;;;;;10.70;6.70;;;;;;;;;;4936095;29;20032;-74
2022/04/30 08:32:23;;;;;;;15.57;6.97;;;;;;;;;;4936394;29;20040;-72
2022/04/30 08:34:49;;;;;;;7.80;6.47;;;;;;;;;;4934350;29;20122;-74
2022/04/30 08:37:15;;;;;;;10.73;6.80;;;;;;;;;;4934956;29;20496;-77
2022/04/30 08:39:41;;;;;;;16.67;7.45;;;;;;;;;;4935667;29;20055;-75
2022/04/30 08:42:07;;;;;;;12.70;6.40;;;;;;;;;;4934468;29;20023;-74
2022/04/30 08:44:37;;;;;;;7.55;6.22;;;;;;;;;;4934878;29;20036;-75
2022/04/30 08:47:04;;;;;;;11.20;6.28;;;;;;;;;;4936411;29;20035;-72
2022/04/30 08:49:33;;;;;;;7.85;6.22;;;;;;;;;;4935986;29;20047;-73
2022/04/30 08:51:59;;;;;;;9.77;6.20;;;;;;;;;;4934428;29;20051;-73
2022/04/30 08:54:25;;;;;;;9.38;5.80;;;;;;;;;;4935109;29;20122;-75
2022/04/30 08:56:56;;;;;;;10.80;6.03;;;;;;;;;;4934398;29;20543;-73
2022/04/30 08:59:23;;;;;;;10.63;6.60;;;;;;;;;;4935661;29;20143;-73
2022/04/30 09:01:51;;;;;;;12.38;6.22;;;;;;;;;;4935410;29;20050;-72
2022/04/30 09:04:18;;;;;;;9.63;6.40;;;;;;;;;;4935466;29;20039;-73
2022/04/30 09:06:46;;;;;;;9.73;6.38;;;;;;;;;;4935465;29;20030;-72
2022/04/30 09:09:19;;;;;;;16.35;8.68;;;;;;;;;;4935283;29;20142;-73
2022/04/30 09:11:45;;;;;;;16.70;8.40;;;;;;;;;;4935708;29;20040;-73
2022/04/30 09:14:11;;;;;;;10.57;6.57;;;;;;;;;;4935337;29;20028;-75
2022/04/30 09:16:38;;;;;;;11.77;7.32;;;;;;;;;;4934868;29;20038;-74
2022/04/30 09:19:04;;;;;;;8.93;6.60;;;;;;;;;;4936027;29;20024;-77
2022/04/30 09:21:30;;;;;;;13.68;9.23;;;;;;;;;;4935485;29;20062;-76
2022/04/30 09:24:06;;;;;;;14.75;7.07;;;;;;;;;;4934866;29;20028;-75
2022/04/30 09:26:40;;;;;;;13.10;9.20;;;;;;;;;;4935445;29;20035;-75
2022/04/30 09:29:22;;;;;;;9.10;6.25;;;;;;;;;;4935566;29;20050;-79
2022/04/30 09:31:50;;;;;;;10.13;5.95;;;;;;;;;;4935115;29;20043;-75
2022/04/30 09:39:47;;;;;;;9.80;6.30;;;;;;;;;;4934960;29;20067;-72
2022/04/30 09:42:13;;;;;;;8.68;6.30;;;;;;;;;;4935219;29;20039;-73
2022/04/30 09:44:39;;;;;;;8.35;5.78;;;;;;;;;;4934668;29;20096;-75
2022/04/30 09:47:08;;;;;;;8.25;5.68;;;;;;;;;;4934587;29;20036;-75
2022/04/30 09:55:07;;;;;;;7.00;5.35;;;;;;;;;;4934570;29;20066;-71
2022/04/30 09:57:36;;;;;;;8.30;5.70;;;;;;;;;;4935096;29;20028;-78
2022/04/30 10:00:08;;;;;;;8.20;5.28;;;;;;;;;;4933093;29;20495;-77
2022/04/30 10:02:38;;;;;;;6.75;4.82;;;;;;;;;;4933424;29;20124;-79
2022/04/30 10:05:06;;;;;;;7.47;5.68;;;;;;;;;;4947043;28;20102;-76
2022/04/30 10:07:33;;;;;;;7.82;5.75;;;;;;;;;;4934289;29;20023;-76
2022/04/30 10:10:02;;;;;;;8.05;5.18;;;;;;;;;;4933425;29;20040;-75
2022/04/30 10:12:35;;;;;;;6.95;4.57;;;;;;;;;;4933779;29;20036;-76
2022/04/30 10:15:04;;;;;;;6.45;3.95;;;;;;;;;;4943798;28;20660;-74
2022/04/30 10:17:40;;;;;;;8.13;4.75;;;;;;;;;;4929925;29;20486;-75
2022/04/30 10:20:15;;;;;;;6.57;5.32;;;;;;;;;;4934861;29;20169;-74
2022/04/30 10:22:55;;;;;;;8.48;5.15;;;;;;;;;;4938942;29;20439;-75
2022/04/30 10:25:42;;;;;;;8.07;5.28;;;;;;;;;;4933602;28;20040;-74
2022/04/30 10:28:10;;;;;;;10.88;6.00;;;;;;;;;;4941864;29;20035;-77
2022/04/30 10:30:38;;;;;;;8.88;5.40;;;;;;;;;;4934283;29;20700;-76
2022/04/30 10:33:07;;;;;;;8.02;5.20;;;;;;;;;;4943041;28;20094;-73
2022/04/30 10:35:43;;;;;;;8.38;5.28;;;;;;;;;;4932449;29;20028;-73
2022/04/30 10:38:18;;;;;;;11.07;7.85;;;;;;;;;;4917865;29;20376;-75
2022/04/30 10:40:58;;;;;;;8.25;5.15;;;;;;;;;;4951543;28;20122;-76
2022/04/30 10:43:35;;;;;;;7.22;5.50;;;;;;;;;;4967176;28;20047;-76
2022/04/30 10:46:13;;;;;;;6.30;5.38;;;;;;;;;;4951295;28;20034;-79
2022/04/30 10:48:39;;;;;;;7.35;5.10;;;;;;;;;;4934977;28;20418;-74
2022/04/30 10:51:07;;;;;;;8.07;5.72;;;;;;;;;;4951792;29;20031;-77
2022/04/30 10:53:35;;;;;;;9.55;6.65;;;;;;;;;;4952707;28;20093;-77
2022/04/30 10:56:03;;;;;;;9.35;6.00;;;;;;;;;;4952495;28;20035;-76
2022/04/30 10:58:30;;;;;;;9.77;5.38;;;;;;;;;;4949590;28;20079;-75
2022/04/30 11:00:57;;;;;;;9.20;5.78;;;;;;;;;;4932983;29;20383;-77
2022/04/30 11:03:30;;;;;;;7.93;5.97;;;;;;;;;;4934114;29;20031;-79
2022/04/30 11:05:57;;;;;;;8.57;5.13;;;;;;;;;;4933393;29;20055;-76
2022/04/30 11:08:26;;;;;;;7.90;5.43;;;;;;;;;;4933267;29;20080;-76
2022/04/30 11:10:53;;;;;;;7.65;5.55;;;;;;;;;;4917173;29;20085;-73
2022/04/30 11:13:20;;;;;;;8.52;5.30;;;;;;;;;;4948727;29;20031;-73
2022/04/30 11:15:47;;;;;;;9.75;5.72;;;;;;;;;;4933449;29;20044;-74
2022/04/30 11:18:13;;;;;;;8.98;5.50;;;;;;;;;;4952564;29;20031;-76
2022/04/30 11:20:41;;;;;;;7.63;5.65;;;;;;;;;;4953721;28;20093;-78
2022/04/30 11:23:06;;;;;;;9.45;5.50;;;;;;;;;;4956514;28;20027;-73
2022/04/30 11:25:37;;;;;;;8.07;5.55;;;;;;;;;;4957040;28;20028;-77
2022/04/30 11:28:08;;;;;;;9.18;5.95;;;;;;;;;;4956752;28;20035;-79
2022/04/30 11:30:39;;;;;;;6.53;5.53;;;;;;;;;;4956311;28;20521;-75
2022/04/30 11:33:06;;;;;;;11.13;6.05;;;;;;;;;;4956903;28;20038;-76
2022/04/30 11:35:32;;;;;;;8.52;5.18;;;;;;;;;;4956923;28;20078;-78
2022/04/30 11:37:58;;;;;;;9.95;5.40;;;;;;;;;;4950088;28;20051;-76
2022/04/30 11:40:27;;;;;;;7.75;5.45;;;;;;;;;;4937734;29;20035;-77
2022/04/30 11:43:01;;;;;;;9.43;6.07;;;;;;;;;;4937631;29;20414;-75
2022/04/30 11:45:29;;;;;;;7.07;5.10;;;;;;;;;;4937387;29;20059;-77
2022/04/30 11:48:03;;;;;;;8.68;5.43;;;;;;;;;;4937302;29;20119;-74
2022/04/30 11:50:30;;;;;;;6.72;5.38;;;;;;;;;;4937499;29;20071;-71
2022/04/30 11:52:57;;;;;;;5.65;4.88;;;;;;;;;;4951774;28;20038;-73
2022/04/30 11:55:26;;;;;;;9.90;5.28;;;;;;;;;;4937280;29;20399;-72
2022/04/30 11:57:52;;;;;;;7.75;5.55;;;;;;;;;;4937166;29;20367;-77
2022/04/30 12:00:19;;;;;;;9.68;6.00;;;;;;;;;;4937024;29;20032;-76
2022/04/30 12:02:46;;;;;;;11.93;5.95;;;;;;;;;;4936280;29;20058;-73
2022/04/30 12:05:12;;;;;;;7.22;5.88;;;;;;;;;;4937494;28;20494;-77
2022/04/30 12:07:40;;;;;;;8.32;5.57;;;;;;;;;;4937281;29;20111;-73
2022/04/30 12:10:23;;;;;;;7.70;5.20;;;;;;;;;;4937078;29;20063;-73
2022/04/30 12:12:51;;;;;;;8.35;5.90;;;;;;;;;;4937044;28;20439;-76
2022/04/30 12:15:23;;;;;;;8.30;5.47;;;;;;;;;;4936814;29;20479;-72
2022/04/30 12:24:40;;;;;;;11.70;5.28;;;;;;;;;;4936938;29;20114;-77
2022/04/30 12:26:09;;;;;;;9.25;5.53;;;;;;;;;;4936762;29;20118;-74
2022/04/30 12:28:49;;;;;;;7.57;5.53;;;;;;;;;;4936851;29;20378;-72
2022/04/30 12:31:16;;;;;;;6.72;4.95;;;;;;;;;;4935152;29;20042;-77
2022/04/30 12:33:48;;;;;;;11.55;7.13;;;;;;;;;;4936825;29;20352;-73
2022/04/30 12:36:15;;;;;;;9.32;5.30;;;;;;;;;;4935473;29;20087;-76
2022/04/30 12:38:55;;;;;;;9.82;5.50;;;;;;;;;;4936410;29;20028;-74
2022/04/30 12:41:22;;;;;;;6.32;4.85;;;;;;;;;;4936373;29;20365;-75
2022/04/30 12:43:49;;;;;;;7.03;5.53;;;;;;;;;;4933195;29;20027;-74
2022/04/30 12:46:19;;;;;;;8.27;5.80;;;;;;;;;;4935996;29;20040;-73
2022/04/30 12:48:45;;;;;;;9.30;6.57;;;;;;;;;;4935976;29;20082;-71
2022/04/30 12:51:11;;;;;;;10.10;6.00;;;;;;;;;;4935655;29;20028;-75
2022/04/30 12:53:37;;;;;;;10.38;5.90;;;;;;;;;;4936384;29;20032;-73
2022/04/30 12:56:03;;;;;;;11.07;6.40;;;;;;;;;;4936148;29;20034;-70
2022/04/30 12:58:29;;;;;;;10.13;6.20;;;;;;;;;;4935213;29;20503;-71
2022/04/30 13:00:55;;;;;;;8.77;5.72;;;;;;;;;;4935465;29;20123;-77
2022/04/30 13:03:20;;;;;;;15.23;6.88;;;;;;;;;;4935838;29;20059;-77
2022/04/30 13:05:46;;;;;;;7.28;6.45;;;;;;;;;;4935254;29;20447;-73
2022/04/30 13:08:12;;;;;;;11.73;6.75;;;;;;;;;;4936076;29;20040;-73
2022/04/30 13:13:32;;;;;;;9.82;5.90;;;;;;;;;;4935135;29;20475;-75
2022/04/30 13:16:01;;;;;;;11.30;6.15;;;;;;;;;;4934176;29;20055;-73
2022/04/30 13:18:28;;;;;;;11.32;6.00;;;;;;;;;;4935092;29;20111;-74
2022/04/30 13:20:54;;;;;;;14.48;6.57;;;;;;;;;;4934662;29;20125;-75
2022/04/30 13:23:19;;;;;;;10.38;6.53;;;;;;;;;;4935675;29;20491;-77
2022/04/30 13:25:45;;;;;;;7.05;5.57;;;;;;;;;;4936082;29;20050;-76
2022/04/30 13:28:11;;;;;;;8.45;6.07;;;;;;;;;;4935421;29;20085;-71
2022/04/30 13:30:37;;;;;;;9.90;6.05;;;;;;;;;;4935821;29;20116;-74
2022/04/30 13:33:04;;;;;;;10.05;6.43;;;;;;;;;;4935648;29;20114;-72
2022/04/30 13:35:30;;;;;;;7.45;6.05;;;;;;;;;;4934826;29;20051;-74
2022/04/30 13:37:56;;;;;;;9.35;6.55;;;;;;;;;;4935165;29;20028;-75
2022/04/30 13:40:22;;;;;;;8.27;5.82;;;;;;;;;;4935468;29;20163;-73
2022/04/30 13:42:48;;;;;;;8.90;5.43;;;;;;;;;;4934365;29;20107;-71
2022/04/30 13:45:14;;;;;;;7.60;5.85;;;;;;;;;;4934522;29;20043;-72
2022/04/30 13:47:41;;;;;;;8.27;6.10;;;;;;;;;;4935720;29;20024;-76
2022/04/30 13:50:07;;;;;;;11.07;6.10;;;;;;;;;;4934798;29;20047;-77
2022/04/30 13:52:34;;;;;;;9.40;6.72;;;;;;;;;;4935271;29;20034;-73
2022/04/30 13:55:01;;;;;;;9.82;6.30;;;;;;;;;;4935159;29;20352;-74
2022/04/30 13:57:26;;;;;;;8.82;6.10;;;;;;;;;;4934431;29;20031;-74
2022/04/30 13:59:53;;;;;;;9.43;5.80;;;;;;;;;;4935420;29;20055;-75
2022/04/30 14:02:19;;;;;;;8.05;5.60;;;;;;;;;;4935184;29;20060;-76
2022/04/30 14:04:45;;;;;;;9.90;5.88;;;;;;;;;;4935135;29;20138;-76
2022/04/30 14:07:11;;;;;;;7.95;5.45;;;;;;;;;;4935146;29;20031;-74
2022/04/30 14:09:37;;;;;;;8.48;6.60;;;;;;;;;;4933867;29;20079;-73
2022/04/30 14:12:03;;;;;;;8.90;6.07;;;;;;;;;;4935219;29;20027;-73
2022/04/30 14:19:59;;;;;;;8.48;6.13;;;;;;;;;;4934676;29;20066;-74
2022/04/30 14:22:28;;;;;;;7.75;6.57;;;;;;;;;;4935346;28;20414;-72
2022/04/30 14:24:54;;;;;;;9.15;6.40;;;;;;;;;;4934913;29;20031;-74
2022/04/30 14:27:19;;;;;;;8.45;6.13;;;;;;;;;;4934515;29;20027;-72
2022/04/30 14:29:46;;;;;;;8.45;6.07;;;;;;;;;;4934920;29;20458;-72
2022/04/30 14:32:13;;;;;;;7.20;5.38;;;;;;;;;;4934846;29;20091;-74
2022/04/30 14:34:43;;;;;;;9.73;5.72;;;;;;;;;;4934351;29;20039;-74
2022/04/30 14:37:09;;;;;;;9.45;5.22;;;;;;;;;;4935008;29;20504;-73
2022/04/30 14:39:35;;;;;;;7.38;5.88;;;;;;;;;;4934693;29;20031;-73
2022/04/30 14:42:02;;;;;;;7.40;5.70;;;;;;;;;;4934318;29;20107;-70
2022/04/30 14:44:30;;;;;;;8.45;5.65;;;;;;;;;;4934322;29;20079;-71
2022/04/30 14:46:56;;;;;;;8.82;5.40;;;;;;;;;;4934443;29;20051;-73
2022/04/30 14:49:22;;;;;;;12.40;5.55;;;;;;;;;;4934219;29;20036;-73
2022/04/30 14:51:48;;;;;;;9.18;5.50;;;;;;;;;;4934577;29;20038;-75
2022/04/30 14:54:15;;;;;;;6.13;4.65;;;;;;;;;;4934601;29;20039;-71
2022/04/30 14:56:43;;;;;;;7.72;5.40;;;;;;;;;;4933801;29;20024;-76
2022/04/30 14:59:10;;;;;;;6.45;4.85;;;;;;;;;;4928258;29;20079;-72
2022/04/30 15:01:36;;;;;;;8.90;5.10;;;;;;;;;;4936646;29;20067;-76
2022/04/30 15:04:02;;;;;;;8.43;4.95;;;;;;;;;;4933231;29;20127;-77
2022/04/30 15:06:28;;;;;;;6.45;5.22;;;;;;;;;;4933404;29;20106;-76
2022/04/30 15:08:56;;;;;;;6.07;4.82;;;;;;;;;;4934930;29;20072;-75
2022/04/30 15:11:23;;;;;;;10.07;5.30;;;;;;;;;;4936103;29;20027;-76
2022/04/30 15:13:48;;;;;;;7.43;5.22;;;;;;;;;;4937844;29;20044;-76
2022/04/30 15:16:14;;;;;;;7.78;5.50;;;;;;;;;;4938903;29;20118;-76
2022/04/30 15:18:40;;;;;;;8.25;5.55;;;;;;;;;;4935356;29;20050;-72
2022/04/30 15:21:06;;;;;;;12.88;7.47;;;;;;;;;;4934679;29;20040;-72
2022/04/30 15:23:32;;;;;;;14.45;7.22;;;;;;;;;;4933592;29;20502;-71
2022/04/30 15:25:57;;;;;;;7.97;6.68;;;;;;;;;;4933112;29;20024;-77
2022/04/30 15:28:24;;;;;;;12.00;7.05;;;;;;;;;;4932698;29;20111;-76
2022/04/30 15:30:50;;;;;;;9.93;6.82;;;;;;;;;;4943362;29;20534;-77